createdAt,value
2023-04-09T00:00:44.090Z,99.90
2023-04-09T00:03:11.064Z,99.90
2023-04-09T00:05:41.292Z,99.90
2023-04-09T00:08:08.573Z,99.90
2023-04-09T00:10:35.677Z,99.90
2023-04-09T00:13:02.635Z,99.90
2023-04-09T00:15:31.664Z,99.90
2023-04-09T00:17:59.670Z,99.90
2023-04-09T00:20:26.813Z,99.90
2023-04-09T00:22:54.158Z,99.90
2023-04-09T00:25:21.152Z,99.90
2023-04-09T00:27:48.168Z,99.90
2023-04-09T00:30:15.080Z,99.90
2023-04-09T00:32:42.480Z,99.90
2023-04-09T00:35:09.668Z,99.90
2023-04-09T00:37:36.587Z,99.90
2023-04-09T00:40:04.390Z,99.90
2023-04-09T00:42:34.831Z,99.90
2023-04-09T00:45:01.968Z,99.90
2023-04-09T00:47:31.015Z,99.90
2023-04-09T00:49:58.372Z,99.90
2023-04-09T00:52:25.740Z,99.90
2023-04-09T00:54:52.984Z,99.90
2023-04-09T00:57:20.409Z,99.90
2023-04-09T00:59:47.256Z,99.90
2023-04-09T01:02:14.208Z,99.90
2023-04-09T01:04:42.554Z,99.90
2023-04-09T01:07:15.773Z,99.90
2023-04-09T01:10:08.215Z,99.90
2023-04-09T01:12:43.598Z,99.90
2023-04-09T01:15:18.235Z,99.90
2023-04-09T01:17:53.272Z,99.90
2023-04-09T01:20:30.550Z,99.90
2023-04-09T01:23:27.860Z,99.90
2023-04-09T01:25:57.717Z,99.90
2023-04-09T01:28:33.142Z,99.90
2023-04-09T01:31:04.096Z,99.90
2023-04-09T01:33:32.548Z,99.90
2023-04-09T01:36:01.742Z,99.90
2023-04-09T01:38:29.052Z,99.90
2023-04-09T01:40:57.548Z,99.90
2023-04-09T01:43:26.243Z,99.90
2023-04-09T01:45:54.705Z,99.90
2023-04-09T01:48:23.028Z,99.90
2023-04-09T01:50:51.486Z,99.90
2023-04-09T01:53:18.603Z,99.90
2023-04-09T01:55:45.661Z,99.90
2023-04-09T01:58:12.688Z,99.90
2023-04-09T02:00:45.707Z,99.90
2023-04-09T02:03:33.130Z,99.90
2023-04-09T02:06:20.326Z,99.90
2023-04-09T02:08:48.857Z,99.90
2023-04-09T02:11:16.631Z,99.90
2023-04-09T02:13:44.223Z,99.90
2023-04-09T02:16:13.914Z,99.90
2023-04-09T02:18:40.914Z,99.90
2023-04-09T02:21:07.906Z,99.90
2023-04-09T02:23:35.103Z,99.90
2023-04-09T02:26:02.429Z,99.90
2023-04-09T02:28:29.314Z,99.90
2023-04-09T02:30:56.307Z,99.90
2023-04-09T02:33:23.469Z,99.90
2023-04-09T02:35:50.367Z,99.90
2023-04-09T02:38:17.270Z,99.90
2023-04-09T02:40:44.159Z,99.90
2023-04-09T02:43:11.238Z,99.90
2023-04-09T02:45:38.116Z,99.90
2023-04-09T02:48:05.292Z,99.90
2023-04-09T02:50:35.285Z,99.90
2023-04-09T02:53:02.944Z,99.90
2023-04-09T02:55:30.020Z,99.90
2023-04-09T02:57:56.960Z,99.90
2023-04-09T03:00:23.931Z,99.90
2023-04-09T03:02:51.010Z,99.90
2023-04-09T03:05:17.980Z,99.90
2023-04-09T03:07:44.912Z,99.90
2023-04-09T03:10:12.073Z,99.90
2023-04-09T03:12:38.977Z,99.90
2023-04-09T03:15:06.682Z,99.90
2023-04-09T03:17:33.627Z,99.90
2023-04-09T03:20:00.698Z,99.90
2023-04-09T03:22:38.676Z,99.90
2023-04-09T03:25:15.509Z,99.90
2023-04-09T03:27:42.721Z,99.90
2023-04-09T03:30:13.549Z,99.90
2023-04-09T03:32:44.375Z,99.90
2023-04-09T03:35:13.284Z,99.90
2023-04-09T03:37:42.255Z,99.90
2023-04-09T03:40:15.575Z,99.90
2023-04-09T03:42:43.670Z,99.90
2023-04-09T03:45:13.093Z,99.90
2023-04-09T03:47:44.242Z,99.90
2023-04-09T03:50:12.300Z,99.90
2023-04-09T03:52:49.567Z,99.90
2023-04-09T03:55:16.592Z,99.90
2023-04-09T03:57:43.488Z,99.90
2023-04-09T04:00:14.854Z,99.90
2023-04-09T04:02:51.563Z,99.90
2023-04-09T04:05:31.481Z,99.90
2023-04-09T04:08:02.571Z,99.90
2023-04-09T04:10:29.952Z,99.90
2023-04-09T04:12:56.926Z,99.90
2023-04-09T04:15:40.044Z,99.90
2023-04-09T04:18:07.149Z,99.90
2023-04-09T04:20:42.376Z,99.90
2023-04-09T04:23:13.051Z,99.90
2023-04-09T04:25:50.898Z,99.90
2023-04-09T04:28:24.550Z,99.90
2023-04-09T04:30:51.628Z,99.90
2023-04-09T04:33:19.163Z,99.90
2023-04-09T04:35:51.407Z,99.90
2023-04-09T04:38:34.655Z,99.90
2023-04-09T04:41:05.770Z,99.90
2023-04-09T04:43:35.989Z,99.90
2023-04-09T04:46:03.198Z,99.90
2023-04-09T04:48:32.063Z,99.90
2023-04-09T04:51:00.298Z,99.90
2023-04-09T04:53:33.595Z,99.90
2023-04-09T04:56:16.047Z,99.90
2023-04-09T04:59:01.304Z,99.90
2023-04-09T05:01:34.395Z,99.90
2023-04-09T05:04:04.197Z,99.90
2023-04-09T05:06:33.718Z,99.90
2023-04-09T05:09:04.887Z,99.90
2023-04-09T05:11:39.816Z,99.90
2023-04-09T05:14:13.351Z,99.90
2023-04-09T05:16:40.617Z,99.90
2023-04-09T05:19:08.499Z,99.90
2023-04-09T05:21:35.693Z,99.90
2023-04-09T05:24:02.958Z,99.90
2023-04-09T05:26:32.509Z,99.90
2023-04-09T05:28:59.358Z,99.90
2023-04-09T05:31:26.669Z,99.90
2023-04-09T05:34:02.396Z,99.90
2023-04-09T05:36:37.455Z,99.90
2023-04-09T05:39:04.417Z,99.90
2023-04-09T05:41:32.769Z,99.90
2023-04-09T05:44:18.665Z,99.90
2023-04-09T05:46:45.918Z,99.90
2023-04-09T05:49:16.391Z,99.90
2023-04-09T05:51:45.353Z,99.90
2023-04-09T05:54:12.567Z,99.90
2023-04-09T05:56:39.473Z,99.90
2023-04-09T05:59:06.397Z,99.90
2023-04-09T06:01:33.481Z,99.90
2023-04-09T06:04:00.697Z,99.90
2023-04-09T06:06:30.394Z,99.90
2023-04-09T06:08:57.252Z,99.90
2023-04-09T06:11:24.204Z,99.90
2023-04-09T06:13:51.882Z,99.90
2023-04-09T06:16:18.987Z,99.90
2023-04-09T06:18:46.921Z,99.90
2023-04-09T06:21:13.818Z,99.90
2023-04-09T06:23:40.886Z,99.90
2023-04-09T06:26:07.752Z,99.90
2023-04-09T06:28:34.712Z,99.90
2023-04-09T06:31:02.057Z,99.90
2023-04-09T06:33:29.079Z,99.90
2023-04-09T06:35:56.404Z,99.90
2023-04-09T06:38:23.282Z,99.90
2023-04-09T06:40:50.458Z,99.90
2023-04-09T06:43:17.377Z,99.90
2023-04-09T06:45:51.546Z,99.90
2023-04-09T06:48:18.489Z,99.90
2023-04-09T06:50:45.752Z,99.90
2023-04-09T06:53:12.642Z,99.90
2023-04-09T06:55:39.646Z,99.90
2023-04-09T06:58:06.798Z,99.90
2023-04-09T07:00:33.706Z,99.90
2023-04-09T07:03:00.877Z,99.90
2023-04-09T07:05:27.924Z,99.90
2023-04-09T07:07:54.816Z,99.90
2023-04-09T07:10:21.753Z,99.90
2023-04-09T07:12:48.620Z,99.90
2023-04-09T07:15:15.566Z,99.90
2023-04-09T07:17:42.894Z,99.90
2023-04-09T07:20:10.478Z,99.90
2023-04-09T07:22:37.426Z,99.90
2023-04-09T07:25:04.584Z,99.90
2023-04-09T07:27:31.705Z,99.90
2023-04-09T07:29:59.761Z,99.90
2023-04-09T07:32:30.828Z,99.90
2023-04-09T07:34:59.472Z,99.90
2023-04-09T07:37:27.135Z,99.90
2023-04-09T07:39:54.065Z,99.90
2023-04-09T07:42:21.194Z,99.90
2023-04-09T07:44:48.045Z,99.90
2023-04-09T07:47:15.067Z,99.90
2023-04-09T07:49:42.245Z,99.90
2023-04-09T07:52:09.224Z,99.90
2023-04-09T07:54:36.144Z,99.90
2023-04-09T07:57:03.393Z,99.90
2023-04-09T07:59:31.533Z,99.90
2023-04-09T08:01:58.889Z,99.90
2023-04-09T08:04:27.271Z,99.90
2023-04-09T08:06:54.384Z,99.90
2023-04-09T08:09:21.659Z,99.90
2023-04-09T08:11:49.830Z,99.90
2023-04-09T08:14:18.085Z,99.90
2023-04-09T08:16:47.364Z,99.90
2023-04-09T08:19:16.405Z,99.90
2023-04-09T08:21:43.946Z,99.90
2023-04-09T08:24:11.850Z,99.90
2023-04-09T08:26:40.133Z,99.90
2023-04-09T08:29:07.984Z,99.90
2023-04-09T08:31:39.057Z,99.90
2023-04-09T08:34:06.689Z,99.90
2023-04-09T08:36:35.381Z,99.90
2023-04-09T08:39:02.968Z,99.90
2023-04-09T08:41:30.180Z,99.90
2023-04-09T08:44:02.720Z,99.90
2023-04-09T08:46:29.551Z,99.90
2023-04-09T08:48:57.218Z,99.90
2023-04-09T08:51:25.014Z,99.90
2023-04-09T08:54:00.781Z,99.90
2023-04-09T08:56:30.893Z,99.90
2023-04-09T08:58:57.820Z,99.90
2023-04-09T09:01:31.362Z,99.90
2023-04-09T09:04:03.872Z,99.90
2023-04-09T09:06:33.693Z,99.90
2023-04-09T09:09:05.617Z,99.90
2023-04-09T09:11:36.952Z,99.90
2023-04-09T09:14:06.481Z,99.90
2023-04-09T09:16:35.666Z,99.90
2023-04-09T09:19:03.313Z,99.90
2023-04-09T09:21:30.685Z,99.90
2023-04-09T09:23:58.296Z,99.90
2023-04-09T09:26:28.850Z,99.90
2023-04-09T09:28:58.961Z,99.90
2023-04-09T09:31:26.593Z,99.90
2023-04-09T09:33:54.152Z,99.90
2023-04-09T09:36:35.112Z,99.90
2023-04-09T09:39:10.341Z,99.90
2023-04-09T09:41:38.032Z,99.90
2023-04-09T09:44:07.345Z,99.90
2023-04-09T09:46:39.370Z,99.90
2023-04-09T09:49:07.166Z,99.90
2023-04-09T09:51:37.259Z,99.90
2023-04-09T09:54:07.069Z,99.90
2023-04-09T09:56:39.530Z,99.90
2023-04-09T09:59:23.285Z,99.90
2023-04-09T10:01:58.989Z,99.90
2023-04-09T10:04:29.579Z,99.90
2023-04-09T10:06:57.975Z,99.90
2023-04-09T10:09:28.073Z,99.90
2023-04-09T10:11:58.025Z,99.90
2023-04-09T10:14:27.387Z,99.90
2023-04-09T10:16:54.425Z,99.90
2023-04-09T10:19:22.325Z,99.90
2023-04-09T10:21:54.762Z,99.90
2023-04-09T10:24:22.856Z,99.90
2023-04-09T10:26:53.736Z,99.90
2023-04-09T10:29:28.577Z,99.90
2023-04-09T10:32:04.583Z,99.90
2023-04-09T10:34:35.678Z,99.90
2023-04-09T10:37:02.942Z,99.90
2023-04-09T10:39:33.288Z,99.90
2023-04-09T10:42:02.537Z,99.90
2023-04-09T10:44:32.257Z,99.90
2023-04-09T10:46:59.630Z,99.90
2023-04-09T10:49:27.360Z,99.90
2023-04-09T10:52:12.082Z,99.90
2023-04-09T10:54:51.009Z,99.90
2023-04-09T10:57:20.930Z,99.90
2023-04-09T10:59:53.680Z,99.90
2023-04-09T11:02:55.268Z,99.90
2023-04-09T11:05:25.885Z,99.90
2023-04-09T11:08:10.700Z,99.90
2023-04-09T11:10:44.017Z,99.90
2023-04-09T11:13:18.594Z,99.90
2023-04-09T11:15:46.049Z,99.90
2023-04-09T11:18:26.656Z,99.90
2023-04-09T11:20:58.185Z,99.90
2023-04-09T11:23:25.975Z,99.90
2023-04-09T11:25:53.832Z,99.90
2023-04-09T11:28:21.450Z,99.90
2023-04-09T11:30:51.551Z,99.90
2023-04-09T11:33:20.044Z,99.90
2023-04-09T11:35:48.333Z,99.90
2023-04-09T11:38:15.593Z,99.90
2023-04-09T11:40:48.541Z,99.90
2023-04-09T11:43:16.727Z,99.90
2023-04-09T11:45:44.846Z,99.90
2023-04-09T11:48:13.036Z,99.90
2023-04-09T11:50:40.715Z,99.90
2023-04-09T11:53:21.229Z,99.90
2023-04-09T11:55:51.445Z,99.90
2023-04-09T11:58:18.655Z,99.90
2023-04-09T12:00:45.916Z,99.90
2023-04-09T12:03:13.595Z,99.90
2023-04-09T12:05:50.500Z,99.90
2023-04-09T12:08:24.822Z,99.90
2023-04-09T12:10:53.966Z,99.90
2023-04-09T12:13:21.212Z,99.90
2023-04-09T12:15:49.842Z,99.90
2023-04-09T12:18:16.892Z,99.90
2023-04-09T12:20:46.681Z,99.90
2023-04-09T12:23:13.964Z,99.90
2023-04-09T12:25:43.031Z,99.90
2023-04-09T12:28:12.467Z,99.90
2023-04-09T12:30:39.514Z,99.90
2023-04-09T12:33:09.547Z,99.90
2023-04-09T12:35:38.383Z,99.90
2023-04-09T12:38:05.693Z,99.90
2023-04-09T12:40:32.660Z,99.90
2023-04-09T12:42:59.567Z,99.90
2023-04-09T12:45:28.032Z,99.90
2023-04-09T12:47:55.274Z,99.90
2023-04-09T12:50:22.413Z,99.70
2023-04-09T12:52:49.312Z,99.90
2023-04-09T12:55:16.866Z,99.90
2023-04-09T12:57:46.937Z,99.60
2023-04-09T13:00:14.429Z,99.10
2023-04-09T13:02:41.713Z,98.80
2023-04-09T13:05:09.210Z,99.20
2023-04-09T13:07:36.213Z,99.70
2023-04-09T13:10:03.626Z,98.80
2023-04-09T13:12:30.627Z,99.40
2023-04-09T13:14:59.243Z,99.50
2023-04-09T13:17:26.452Z,98.90
2023-04-09T13:19:53.691Z,98.90
2023-04-09T13:22:20.832Z,99.20
2023-04-09T13:24:47.748Z,99.10
2023-04-09T13:27:14.840Z,99.70
2023-04-09T13:29:41.793Z,99.90
2023-04-09T13:32:10.863Z,98.90
2023-04-09T13:34:39.603Z,99.70
2023-04-09T13:37:07.081Z,99.50
2023-04-09T13:39:34.122Z,99.10
2023-04-09T13:42:07.131Z,99.30
2023-04-09T13:44:37.088Z,98.80
2023-04-09T13:47:04.041Z,99.60
2023-04-09T13:49:31.074Z,99.10
2023-04-09T13:51:58.388Z,99.90
2023-04-09T13:54:25.249Z,99.90
2023-04-09T13:56:52.340Z,99.20
2023-04-09T13:59:19.262Z,99.60
2023-04-09T14:01:46.187Z,99.60
2023-04-09T14:04:13.307Z,98.70
2023-04-09T14:06:40.508Z,98.90
2023-04-09T14:09:07.463Z,99.20
2023-04-09T14:11:34.373Z,98.40
2023-04-09T14:14:01.297Z,98.80
2023-04-09T14:16:30.392Z,98.60
2023-04-09T14:18:57.930Z,99.80
2023-04-09T14:21:25.250Z,99.10
2023-04-09T14:23:52.360Z,99.30
2023-04-09T14:26:20.745Z,98.60
2023-04-09T14:28:49.278Z,98.60
2023-04-09T14:31:20.258Z,98.60
2023-04-09T14:33:48.638Z,99.70
2023-04-09T14:36:15.859Z,99.90
2023-04-09T14:38:42.796Z,99.70
2023-04-09T14:41:09.946Z,99.20
2023-04-09T14:43:36.905Z,98.40
2023-04-09T14:46:06.369Z,98.10
2023-04-09T14:48:33.383Z,97.70
2023-04-09T14:51:00.303Z,97.80
2023-04-09T14:53:27.243Z,97.10
2023-04-09T14:55:54.136Z,97.10
2023-04-09T14:58:21.542Z,97.50
2023-04-09T15:00:48.908Z,97.90
2023-04-09T15:03:16.122Z,98.30
2023-04-09T15:05:43.144Z,99.10
2023-04-09T15:08:10.179Z,99.50
2023-04-09T15:10:37.476Z,99.30
2023-04-09T15:13:04.399Z,98.90
2023-04-09T15:15:32.401Z,98.80
2023-04-09T15:18:05.559Z,98.10
2023-04-09T15:20:37.315Z,98.60
2023-04-09T15:23:04.311Z,97.70
2023-04-09T15:25:31.309Z,97.40
2023-04-09T15:27:58.926Z,96.80
2023-04-09T15:30:26.484Z,97.60
2023-04-09T15:32:53.454Z,96.70
2023-04-09T15:35:25.069Z,96.70
2023-04-09T15:37:52.583Z,96.70
2023-04-09T15:40:19.717Z,96.90
2023-04-09T15:42:46.686Z,96.90
2023-04-09T15:45:17.473Z,97.10
2023-04-09T15:47:45.093Z,97.90
2023-04-09T15:50:12.680Z,97.90
2023-04-09T15:52:39.748Z,97.50
2023-04-09T15:55:07.171Z,97.60
2023-04-09T15:57:34.164Z,97.80
2023-04-09T16:00:01.141Z,97.50
2023-04-09T16:02:28.149Z,97.80
2023-04-09T16:04:55.649Z,98.00
2023-04-09T16:07:22.548Z,98.10
2023-04-09T16:09:49.597Z,98.50
2023-04-09T16:12:16.755Z,98.40
2023-04-09T16:14:43.636Z,97.80
2023-04-09T16:17:10.636Z,98.60
2023-04-09T16:19:37.598Z,98.90
2023-04-09T16:22:04.485Z,98.90
2023-04-09T16:24:32.347Z,98.90
2023-04-09T16:26:59.435Z,98.30
2023-04-09T16:29:26.382Z,98.00
2023-04-09T16:31:53.375Z,97.70
2023-04-09T16:34:20.530Z,97.70
2023-04-09T16:36:47.488Z,98.00
2023-04-09T16:39:15.522Z,98.30
2023-04-09T16:41:44.324Z,97.70
2023-04-09T16:44:11.228Z,98.00
2023-04-09T16:46:38.183Z,97.80
2023-04-09T16:49:05.163Z,98.30
2023-04-09T16:51:32.106Z,98.30
2023-04-09T16:53:58.984Z,98.90
2023-04-09T16:56:26.042Z,98.70
2023-04-09T16:58:53.104Z,98.70
2023-04-09T17:01:20.484Z,98.90
2023-04-09T17:03:49.438Z,98.90
2023-04-09T17:06:16.634Z,98.60
2023-04-09T17:08:43.617Z,98.60
2023-04-09T17:11:15.019Z,98.60
2023-04-09T17:13:41.998Z,98.90
2023-04-09T17:16:09.094Z,99.40
2023-04-09T17:18:36.203Z,99.60
2023-04-09T17:21:03.401Z,99.00
2023-04-09T17:23:30.463Z,99.10
2023-04-09T17:25:58.183Z,99.50
2023-04-09T17:28:25.138Z,99.50
2023-04-09T17:30:52.165Z,99.20
2023-04-09T17:33:19.013Z,98.80
2023-04-09T17:35:45.909Z,99.10
2023-04-09T17:38:17.223Z,99.80
2023-04-09T17:40:44.124Z,99.80
2023-04-09T17:43:10.989Z,99.80
2023-04-09T17:45:37.891Z,99.40
2023-04-09T17:48:04.877Z,99.40
2023-04-09T17:50:31.807Z,99.30
2023-04-09T17:52:58.701Z,99.10
2023-04-09T17:55:25.592Z,98.90
2023-04-09T17:57:52.526Z,99.00
2023-04-09T18:00:19.405Z,99.50
2023-04-09T18:02:47.054Z,99.80
2023-04-09T18:05:14.365Z,99.90
2023-04-09T18:07:41.446Z,99.90
2023-04-09T18:10:08.624Z,99.90
2023-04-09T18:12:35.745Z,99.90
2023-04-09T18:15:03.604Z,99.90
2023-04-09T18:17:30.810Z,99.90
2023-04-09T18:19:58.441Z,99.90
2023-04-09T18:22:27.403Z,99.90
2023-04-09T18:24:54.403Z,99.90
2023-04-09T18:27:21.693Z,99.90
2023-04-09T18:29:51.430Z,99.90
2023-04-09T18:32:19.815Z,99.90
2023-04-09T18:34:47.728Z,99.90
2023-04-09T18:37:15.377Z,99.90
2023-04-09T18:39:42.297Z,99.90
2023-04-09T18:42:09.514Z,99.90
2023-04-09T18:44:37.644Z,99.90
2023-04-09T18:47:06.012Z,99.90
2023-04-09T18:49:33.489Z,99.90
2023-04-09T18:52:00.713Z,99.90
2023-04-09T18:54:27.850Z,99.90
2023-04-09T18:56:54.782Z,99.90
2023-04-09T18:59:21.920Z,99.90
2023-04-09T19:01:49.029Z,99.90
2023-04-09T19:04:16.035Z,99.90
2023-04-09T19:06:46.233Z,99.90
2023-04-09T19:09:13.134Z,99.90
2023-04-09T19:11:40.066Z,99.90
2023-04-09T19:14:07.012Z,99.90
2023-04-09T19:16:34.000Z,99.90
2023-04-09T19:19:00.928Z,99.90
2023-04-09T19:21:29.013Z,99.90
2023-04-09T19:23:56.305Z,99.90
2023-04-09T19:26:23.229Z,99.90
2023-04-09T19:28:50.114Z,99.90
2023-04-09T19:31:17.115Z,99.90
2023-04-09T19:33:44.123Z,99.90
2023-04-09T19:36:12.875Z,99.90
2023-04-09T19:38:40.118Z,99.90
2023-04-09T19:41:07.033Z,99.90
2023-04-09T19:43:33.981Z,99.90
2023-04-09T19:46:08.604Z,99.90
2023-04-09T19:48:37.335Z,99.90
2023-04-09T19:51:04.481Z,99.90
2023-04-09T19:53:32.801Z,99.90
2023-04-09T19:55:59.758Z,99.90
2023-04-09T19:58:27.292Z,99.90
2023-04-09T20:00:54.956Z,99.90
2023-04-09T20:03:22.431Z,99.90
2023-04-09T20:05:49.438Z,99.90
2023-04-09T20:08:16.650Z,99.90
2023-04-09T20:10:46.401Z,99.90
2023-04-09T20:13:13.638Z,99.90
2023-04-09T20:15:40.755Z,99.90
2023-04-09T20:18:08.052Z,99.90
2023-04-09T20:20:35.014Z,99.90
2023-04-09T20:23:01.949Z,99.90
2023-04-09T20:25:34.340Z,99.90
2023-04-09T20:28:02.548Z,99.90
2023-04-09T20:30:33.722Z,99.90
2023-04-09T20:33:01.455Z,99.90
2023-04-09T20:35:28.407Z,99.90
2023-04-09T20:37:55.612Z,99.90
2023-04-09T20:40:22.583Z,99.90
2023-04-09T20:42:49.711Z,99.90
2023-04-09T20:45:16.607Z,99.90
2023-04-09T20:47:43.594Z,99.90
2023-04-09T20:50:11.101Z,99.90
2023-04-09T20:52:38.383Z,99.90
2023-04-09T20:55:06.394Z,99.90
2023-04-09T20:57:33.774Z,99.90
2023-04-09T21:00:00.954Z,99.90
2023-04-09T21:02:27.943Z,99.90
2023-04-09T21:04:54.931Z,99.90
2023-04-09T21:07:21.803Z,99.90
2023-04-09T21:09:49.353Z,99.90
2023-04-09T21:12:16.223Z,99.90
2023-04-09T21:14:43.174Z,99.90
2023-04-09T21:17:10.144Z,99.90
2023-04-09T21:19:37.089Z,99.90
2023-04-09T21:22:04.288Z,99.90
2023-04-09T21:24:35.246Z,99.90
2023-04-09T21:27:04.973Z,99.90
2023-04-09T21:29:31.808Z,99.90
2023-04-09T21:31:58.728Z,99.90
2023-04-09T21:34:25.625Z,99.90
2023-04-09T21:36:54.074Z,99.90
2023-04-09T21:39:21.188Z,99.90
2023-04-09T21:41:48.089Z,99.90
2023-04-09T21:44:14.980Z,99.90
2023-04-09T21:46:42.202Z,99.90
2023-04-09T21:49:09.181Z,99.90
2023-04-09T21:51:36.257Z,99.90
2023-04-09T21:54:04.558Z,99.90
2023-04-09T21:56:32.602Z,99.90
2023-04-09T21:59:00.855Z,99.90
2023-04-09T22:01:30.487Z,99.90
2023-04-09T22:04:01.909Z,99.90
2023-04-09T22:06:29.188Z,99.90
2023-04-09T22:08:58.037Z,99.90
2023-04-09T22:11:29.330Z,99.90
2023-04-09T22:13:57.157Z,99.90
2023-04-09T22:16:25.154Z,99.90
2023-04-09T22:18:53.520Z,99.90
2023-04-09T22:21:20.802Z,99.90
2023-04-09T22:23:47.712Z,99.90
2023-04-09T22:26:14.610Z,99.90
2023-04-09T22:28:41.476Z,99.90
2023-04-09T22:31:08.632Z,99.90
2023-04-09T22:33:35.555Z,99.90
2023-04-09T22:36:02.476Z,99.90
2023-04-09T22:38:29.347Z,99.90
2023-04-09T22:40:56.220Z,99.90
2023-04-09T22:43:23.304Z,99.90
2023-04-09T22:45:54.681Z,99.90
2023-04-09T22:48:22.930Z,99.90
2023-04-09T22:50:50.519Z,99.90
2023-04-09T22:53:21.270Z,99.90
2023-04-09T22:55:51.233Z,99.90
2023-04-09T22:58:18.747Z,99.90
2023-04-09T23:00:47.060Z,99.90
2023-04-09T23:03:14.346Z,99.90
2023-04-09T23:05:41.949Z,99.90
2023-04-09T23:08:09.479Z,99.90
2023-04-09T23:10:36.500Z,99.90
2023-04-09T23:13:03.593Z,99.90
2023-04-09T23:15:30.477Z,99.90
2023-04-09T23:17:57.369Z,99.90
2023-04-09T23:20:24.346Z,99.90
2023-04-09T23:22:51.224Z,99.90
2023-04-09T23:25:18.555Z,99.90
2023-04-09T23:27:46.621Z,99.90
2023-04-09T23:30:17.003Z,99.90
2023-04-09T23:32:48.298Z,99.90
2023-04-09T23:35:15.664Z,99.90
2023-04-09T23:37:43.113Z,99.90
2023-04-09T23:40:11.226Z,99.90
2023-04-09T23:42:38.299Z,99.90
2023-04-09T23:45:06.669Z,99.90
2023-04-09T23:47:35.767Z,99.90
2023-04-09T23:50:07.625Z,99.90
2023-04-09T23:52:37.309Z,99.90
2023-04-09T23:55:08.951Z,99.90
2023-04-09T23:57:35.977Z,99.90
